Mans de Carolina, Puerto Rico
Current Conditions -  °F | °C
As of 3:56 AM on Sunday 23 Nov 2014 (Local Time) from TJSJ Reporting Station
Few Clouds Few Clouds  
Wind Chill: 77°   Ceiling: Unl
Heat Index: 78°   Visibility: 10mi
Dew Point: 75°   Wind: 5mph
Humidity: 94%   Direction: 110°ESE
Pressure: 29.97"   Gusts: NA
Location:  18.4083°N, 65.981°W
Report Text: TJSJ 230756Z 11004KT 10SM FEW030 25/24 A2997 RMK AO2 RAB15E38 SLP146 VCSH W P0001 T02500239 $
Loading
Personal Weather Stations






























Interactive Weather Map New forecast layout! Learn more

10-Day Weather Forecast

Advertisements
Track Severe Weather on mobile